Time;durP1;ratioP1;P1;durP2;ratioP2;P2;SDS_P1;SDS_P2;PMS_P1;PMS_P2;Temp;Humidity;BMP_temperature;BMP_pressure;BME280_temperature;BME280_humidity;BME280_pressure;Samples;Min_cycle;Max_cycle;Signal;HPM_P1;HPM_P2
2022/04/01 00:02:20;;;;;;;6.35;3.03;;;0.70;99.90;;;;;;5020222;28;20467;-64
2022/04/01 00:04:46;;;;;;;8.13;3.45;;;0.80;99.90;;;;;;5020257;28;20041;-63
2022/04/01 00:07:12;;;;;;;4.93;3.10;;;0.70;99.90;;;;;;5003540;28;20033;-63
2022/04/01 00:09:38;;;;;;;5.22;3.13;;;0.80;99.90;;;;;;5020349;28;20038;-62
2022/04/01 00:12:08;;;;;;;6.70;3.10;;;0.80;99.90;;;;;;5020620;28;20048;-63
2022/04/01 00:14:34;;;;;;;6.60;3.03;;;0.70;99.90;;;;;;5019887;28;20639;-62
2022/04/01 00:17:00;;;;;;;5.45;3.08;;;0.80;99.90;;;;;;5020553;28;20053;-64
2022/04/01 00:19:26;;;;;;;6.47;3.22;;;0.70;99.90;;;;;;5002749;28;20048;-64
2022/04/01 00:21:52;;;;;;;4.18;2.70;;;0.80;99.90;;;;;;5020651;28;20121;-63
2022/04/01 00:24:17;;;;;;;6.45;3.00;;;0.80;99.90;;;;;;5019660;28;20129;-62
2022/04/01 00:26:45;;;;;;;6.10;3.47;;;0.70;99.90;;;;;;5020436;28;20091;-62
2022/04/01 00:29:18;;;;;;;7.32;3.28;;;0.80;99.90;;;;;;5020439;28;20033;-62
2022/04/01 00:31:45;;;;;;;5.63;2.83;;;0.70;99.90;;;;;;5020064;28;20044;-62
2022/04/01 00:34:17;;;;;;;6.80;3.00;;;0.70;99.90;;;;;;5020220;28;20045;-63
2022/04/01 00:36:49;;;;;;;7.43;3.47;;;0.80;99.90;;;;;;5020448;28;20042;-62
2022/04/01 00:39:17;;;;;;;5.20;3.03;;;0.80;99.90;;;;;;5020328;28;20041;-62
2022/04/01 00:41:45;;;;;;;5.85;2.92;;;0.80;99.90;;;;;;5020063;28;20060;-62
2022/04/01 00:44:15;;;;;;;7.85;3.10;;;0.70;99.90;;;;;;5019872;28;20379;-62
2022/04/01 00:46:49;;;;;;;7.05;3.45;;;0.80;99.90;;;;;;5020247;28;20358;-62
2022/04/01 00:49:15;;;;;;;;;;;0.70;99.90;;;;;;5020705;28;20054;-64
2022/04/01 00:51:43;;;;;;;4.28;2.83;;;0.70;99.90;;;;;;5020098;28;19917;-63
2022/04/01 00:54:11;;;;;;;6.38;2.85;;;0.70;99.90;;;;;;5020123;28;20173;-62
2022/04/01 00:56:38;;;;;;;5.75;3.25;;;0.70;99.90;;;;;;5020039;28;20045;-63
2022/04/01 00:59:04;;;;;;;6.50;3.15;;;0.80;99.90;;;;;;5020100;28;20388;-62
2022/04/01 01:01:31;;;;;;;5.88;3.00;;;0.80;99.90;;;;;;5019773;28;20034;-62
2022/04/01 01:04:00;;;;;;;5.95;2.60;;;0.70;99.90;;;;;;5017682;28;20116;-62
2022/04/01 01:06:26;;;;;;;7.88;3.08;;;0.70;99.90;;;;;;5016813;28;20042;-63
2022/04/01 01:08:54;;;;;;;4.00;2.60;;;0.70;99.90;;;;;;5017196;28;20422;-62
2022/04/01 01:11:20;;;;;;;5.75;3.03;;;0.60;99.90;;;;;;5016485;28;20056;-62
2022/04/01 01:13:46;;;;;;;5.05;2.80;;;0.70;99.90;;;;;;4999505;28;20120;-62
2022/04/01 01:16:12;;;;;;;9.07;3.42;;;0.70;99.90;;;;;;5016433;28;20453;-63
2022/04/01 01:18:37;;;;;;;5.93;2.63;;;0.70;99.90;;;;;;5016813;28;20132;-62
2022/04/01 01:21:04;;;;;;;7.40;3.03;;;0.70;99.90;;;;;;5016413;28;20052;-62
2022/04/01 01:23:30;;;;;;;6.07;2.90;;;0.70;99.90;;;;;;5016823;28;20133;-62
2022/04/01 01:25:56;;;;;;;6.25;2.83;;;0.70;99.90;;;;;;5016467;28;20048;-62
2022/04/01 01:28:23;;;;;;;6.10;3.15;;;0.70;99.90;;;;;;5016678;28;20117;-62
2022/04/01 01:30:49;;;;;;;5.25;2.63;;;0.70;99.90;;;;;;5015904;28;20402;-62
2022/04/01 01:33:14;;;;;;;5.93;2.70;;;0.70;99.90;;;;;;5016124;28;20045;-62
2022/04/01 01:35:41;;;;;;;5.25;2.65;;;0.70;99.90;;;;;;4998481;28;20104;-64
2022/04/01 01:38:08;;;;;;;7.03;3.00;;;0.70;99.90;;;;;;5016377;28;20132;-63
2022/04/01 01:40:34;;;;;;;5.30;3.17;;;0.70;99.90;;;;;;5016295;28;20053;-62
2022/04/01 01:43:00;;;;;;;7.13;2.75;;;0.70;99.90;;;;;;5016554;28;20038;-62
2022/04/01 01:45:29;;;;;;;5.65;2.80;;;0.70;99.90;;;;;;5016097;28;20117;-62
2022/04/01 01:47:55;;;;;;;5.78;2.47;;;0.70;99.90;;;;;;5015985;28;20073;-62
2022/04/01 01:55:49;;;;;;;4.60;2.80;;;0.70;99.90;;;;;;5015878;28;20104;-62
2022/04/01 01:58:15;;;;;;;4.05;2.50;;;0.70;99.90;;;;;;5016144;28;20033;-62
2022/04/01 02:00:42;;;;;;;5.88;2.50;;;0.70;99.90;;;;;;5015715;28;20038;-64
2022/04/01 02:03:10;;;;;;;4.45;2.55;;;0.70;99.90;;;;;;4998591;28;20053;-62
2022/04/01 02:05:35;;;;;;;6.47;2.80;;;0.70;99.90;;;;;;5015762;28;20112;-62
2022/04/01 02:08:02;;;;;;;5.10;2.72;;;0.80;99.90;;;;;;5015812;28;20113;-65
2022/04/01 02:10:28;;;;;;;5.30;2.78;;;0.80;99.90;;;;;;5015487;28;20069;-62
2022/04/01 02:12:55;;;;;;;4.82;2.85;;;0.80;99.90;;;;;;5015892;28;20070;-65
2022/04/01 02:15:21;;;;;;;6.55;2.63;;;0.70;99.90;;;;;;4997124;28;20062;-63
2022/04/01 02:17:46;;;;;;;6.57;2.78;;;0.80;99.90;;;;;;5015561;28;20053;-63
2022/04/01 02:20:13;;;;;;;6.25;2.95;;;0.80;99.90;;;;;;5015278;28;20467;-63
2022/04/01 02:22:41;;;;;;;7.32;2.80;;;0.70;99.90;;;;;;5015589;28;20118;-62
2022/04/01 02:25:07;;;;;;;8.10;3.00;;;0.70;99.90;;;;;;5015309;28;20042;-62
2022/04/01 02:27:34;;;;;;;6.03;2.95;;;0.70;99.90;;;;;;5015515;28;20045;-62
2022/04/01 02:30:02;;;;;;;9.18;3.30;;;0.70;99.90;;;;;;5015102;28;20042;-62
2022/04/01 02:32:35;;;;;;;8.15;2.97;;;0.70;99.90;;;;;;5015141;28;20136;-62
2022/04/01 02:35:00;;;;;;;6.57;2.92;;;0.70;99.90;;;;;;5015090;28;20093;-63
2022/04/01 02:37:26;;;;;;;7.10;3.55;;;0.70;99.90;;;;;;5015467;28;20084;-62
2022/04/01 02:39:51;;;;;;;4.47;2.88;;;0.70;99.90;;;;;;5015027;28;20046;-63
2022/04/01 02:42:17;;;;;;;8.52;3.50;;;0.70;99.90;;;;;;5015198;28;20467;-61
2022/04/01 02:44:43;;;;;;;4.07;2.55;;;0.70;99.90;;;;;;5014913;28;20038;-62
2022/04/01 02:47:09;;;;;;;5.35;2.92;;;0.70;99.90;;;;;;5015171;28;20356;-63
2022/04/01 02:49:34;;;;;;;6.43;2.97;;;0.60;99.90;;;;;;5014817;28;20042;-63
2022/04/01 02:52:00;;;;;;;6.97;2.70;;;0.60;99.90;;;;;;5014874;28;20046;-62
2022/04/01 02:54:26;;;;;;;7.65;3.35;;;0.70;99.90;;;;;;5014533;28;20053;-62
2022/04/01 02:56:52;;;;;;;4.45;2.67;;;0.70;99.90;;;;;;5014745;28;20371;-62
2022/04/01 02:59:17;;;;;;;7.43;2.85;;;0.70;99.90;;;;;;5014786;28;20077;-62
2022/04/01 03:01:47;;;;;;;5.72;2.90;;;0.70;99.90;;;;;;5014519;28;20072;-64
2022/04/01 03:04:21;;;;;;;7.80;3.10;;;0.60;99.90;;;;;;4998719;28;20085;-63
2022/04/01 03:06:47;;;;;;;5.72;3.13;;;0.70;99.90;;;;;;5014869;28;20098;-64
2022/04/01 03:09:13;;;;;;;6.88;3.00;;;0.60;99.90;;;;;;4996897;28;20463;-62
2022/04/01 03:11:40;;;;;;;6.47;3.08;;;0.70;99.90;;;;;;5014774;28;20045;-62
2022/04/01 03:14:08;;;;;;;6.45;3.08;;;0.70;99.90;;;;;;5014264;28;20072;-62
2022/04/01 03:16:35;;;;;;;5.78;2.97;;;0.70;99.90;;;;;;4996451;28;20058;-63
2022/04/01 03:19:02;;;;;;;5.82;2.80;;;0.60;99.90;;;;;;5014771;28;20047;-62
2022/04/01 03:21:29;;;;;;;5.95;3.00;;;0.70;99.90;;;;;;5014181;28;20053;-62
2022/04/01 03:23:55;;;;;;;5.88;2.70;;;0.70;99.90;;;;;;5014278;28;20045;-65
2022/04/01 03:26:21;;;;;;;5.03;2.70;;;0.70;99.90;;;;;;5013502;28;20498;-62
2022/04/01 03:28:48;;;;;;;4.05;2.60;;;0.80;99.90;;;;;;5013652;28;20049;-62
2022/04/01 03:31:14;;;;;;;6.53;2.92;;;0.80;99.90;;;;;;5014057;28;20096;-62
2022/04/01 03:33:44;;;;;;;5.93;2.92;;;0.80;99.90;;;;;;5014626;28;20421;-62
2022/04/01 03:36:10;;;;;;;6.63;2.88;;;0.80;99.90;;;;;;5013357;28;20431;-62
2022/04/01 03:38:38;;;;;;;6.10;2.80;;;0.70;99.90;;;;;;5014449;28;20081;-62
2022/04/01 03:41:05;;;;;;;6.90;3.10;;;0.70;99.90;;;;;;4996608;28;20060;-63
2022/04/01 03:43:34;;;;;;;6.10;2.60;;;0.80;99.90;;;;;;4997082;28;20482;-64
2022/04/01 03:46:07;;;;;;;5.60;2.80;;;0.80;99.90;;;;;;5014045;28;20171;-62
2022/04/01 03:48:51;;;;;;;4.97;2.53;;;0.80;99.90;;;;;;4996833;28;20502;-63
2022/04/01 03:51:24;;;;;;;7.95;3.00;;;0.70;99.90;;;;;;5013822;28;20046;-62
2022/04/01 03:54:05;;;;;;;4.63;2.55;;;0.70;99.90;;;;;;5014329;28;20110;-62
2022/04/01 03:56:34;;;;;;;4.15;2.58;;;0.70;99.90;;;;;;5014013;28;20041;-64
2022/04/01 03:59:07;;;;;;;6.85;2.90;;;0.70;99.90;;;;;;5014440;28;20069;-63
2022/04/01 04:01:37;;;;;;;5.63;2.55;;;0.80;99.90;;;;;;5014227;28;20062;-63
2022/04/01 04:04:03;;;;;;;4.72;2.67;;;0.80;99.90;;;;;;5014077;28;20045;-62
2022/04/01 04:06:29;;;;;;;4.60;2.47;;;0.80;99.90;;;;;;5014043;28;20060;-63
2022/04/01 04:08:57;;;;;;;4.55;2.28;;;0.80;99.90;;;;;;5013903;28;20042;-63
2022/04/01 04:11:28;;;;;;;6.80;2.75;;;0.90;99.90;;;;;;5013554;28;20491;-63
2022/04/01 04:13:56;;;;;;;5.75;2.50;;;0.90;99.90;;;;;;4996610;28;20081;-63
2022/04/01 04:16:29;;;;;;;4.22;2.40;;;0.80;99.90;;;;;;5013679;28;20478;-64
2022/04/01 04:19:16;;;;;;;4.47;2.40;;;0.90;99.90;;;;;;4996480;28;20482;-65
2022/04/01 04:22:09;;;;;;;4.22;2.60;;;0.90;99.90;;;;;;4996796;28;20409;-63
2022/04/01 04:24:53;;;;;;;6.47;2.60;;;0.90;99.90;;;;;;4979905;28;20042;-62
2022/04/01 04:27:27;;;;;;;5.63;2.42;;;0.90;99.90;;;;;;5013876;28;20042;-62
2022/04/01 04:30:03;;;;;;;3.65;2.35;;;0.90;99.90;;;;;;5013430;28;20459;-63
2022/04/01 04:32:34;;;;;;;4.72;2.70;;;0.80;99.90;;;;;;5013543;28;20454;-63
2022/04/01 04:35:04;;;;;;;7.25;2.50;;;0.90;99.90;;;;;;5013621;28;20119;-63
2022/04/01 04:37:34;;;;;;;4.25;2.30;;;0.80;99.90;;;;;;5014623;28;20100;-63
2022/04/01 04:40:01;;;;;;;5.30;2.50;;;1.00;99.90;;;;;;4999799;28;20100;-64
2022/04/01 04:42:27;;;;;;;5.07;2.45;;;1.10;99.90;;;;;;5016870;28;20034;-63
2022/04/01 04:44:54;;;;;;;5.18;2.60;;;1.00;99.90;;;;;;5017246;28;20058;-63
2022/04/01 04:47:28;;;;;;;4.07;2.10;;;1.00;99.90;;;;;;5017243;28;20045;-62
2022/04/01 04:49:57;;;;;;;3.80;2.10;;;1.00;99.90;;;;;;5016836;28;20462;-63
2022/04/01 04:52:30;;;;;;;6.05;2.20;;;1.10;99.90;;;;;;5016528;28;20112;-63
2022/04/01 04:54:56;;;;;;;3.78;2.20;;;1.10;99.90;;;;;;5016769;28;20117;-63
2022/04/01 04:57:22;;;;;;;5.03;2.33;;;1.00;99.90;;;;;;4999729;28;20057;-63
2022/04/01 04:59:49;;;;;;;5.63;2.25;;;1.00;99.90;;;;;;5005052;28;20172;-63
2022/04/01 05:02:22;;;;;;;3.25;2.33;;;1.00;99.90;;;;;;5000761;28;20074;-62
2022/04/01 05:04:59;;;;;;;4.57;2.40;;;1.10;99.90;;;;;;4997880;28;20053;-63
2022/04/01 05:07:56;;;;;;;4.07;2.03;;;1.10;99.90;;;;;;4997816;28;20065;-63
2022/04/01 05:10:36;;;;;;;3.67;2.28;;;1.00;99.90;;;;;;5010927;28;20042;-63
2022/04/01 05:13:23;;;;;;;6.70;3.28;;;1.00;99.90;;;;;;4998941;28;20367;-62
2022/04/01 05:15:53;;;;;;;3.58;2.10;;;1.10;99.90;;;;;;5015363;28;20115;-62
2022/04/01 05:18:32;;;;;;;5.20;2.28;;;1.20;99.90;;;;;;5016842;28;20050;-62
2022/04/01 05:21:02;;;;;;;4.78;2.00;;;1.10;99.90;;;;;;5015461;28;20034;-65
2022/04/01 05:23:40;;;;;;;5.00;2.03;;;1.20;99.90;;;;;;4999075;28;20380;-62
2022/04/01 05:26:14;;;;;;;3.83;1.98;;;1.10;99.90;;;;;;5015630;28;20042;-62
2022/04/01 05:28:51;;;;;;;4.18;2.17;;;1.10;99.90;;;;;;5016043;28;20459;-62
2022/04/01 05:31:25;;;;;;;4.47;2.20;;;1.10;99.90;;;;;;5011883;28;20034;-62
2022/04/01 05:33:57;;;;;;;7.00;2.13;;;1.20;99.90;;;;;;5016848;28;20124;-63
2022/04/01 05:36:24;;;;;;;5.30;2.42;;;1.20;99.90;;;;;;5016284;28;20038;-63
2022/04/01 05:38:50;;;;;;;5.07;2.30;;;1.20;99.90;;;;;;5016595;28;20049;-62
2022/04/01 05:41:19;;;;;;;3.70;2.03;;;1.10;99.90;;;;;;5016232;28;20060;-63
2022/04/01 05:43:47;;;;;;;3.00;1.80;;;1.20;99.90;;;;;;5016095;28;20463;-62
2022/04/01 05:46:19;;;;;;;5.38;1.90;;;1.30;99.90;;;;;;5015045;28;20045;-63
2022/04/01 05:48:46;;;;;;;4.07;1.70;;;1.30;99.90;;;;;;5015162;28;20416;-62
2022/04/01 05:51:14;;;;;;;4.32;1.80;;;1.40;99.90;;;;;;5015299;28;20096;-63
2022/04/01 05:53:43;;;;;;;4.72;1.80;;;1.50;99.90;;;;;;5014523;28;20053;-62
2022/04/01 05:56:09;;;;;;;5.43;1.90;;;1.50;99.90;;;;;;5013228;28;20053;-61
2022/04/01 05:58:35;;;;;;;4.30;1.33;;;1.60;99.90;;;;;;5016048;28;20034;-61
2022/04/01 06:01:26;;;;;;;5.40;1.70;;;1.60;99.90;;;;;;5016006;28;20482;-61
2022/04/01 06:04:16;;;;;;;3.45;1.70;;;1.70;99.90;;;;;;5014829;28;20064;-62
2022/04/01 06:06:44;;;;;;;3.92;1.50;;;1.70;99.90;;;;;;5014625;28;20038;-61
2022/04/01 06:09:21;;;;;;;4.70;1.80;;;1.70;99.90;;;;;;5014450;28;20042;-61
2022/04/01 06:12:09;;;;;;;3.17;1.65;;;1.80;99.90;;;;;;5015006;28;20042;-61
2022/04/01 06:14:54;;;;;;;3.95;1.50;;;1.90;99.90;;;;;;5015036;28;20042;-61
2022/04/01 06:17:31;;;;;;;4.05;1.67;;;1.90;99.90;;;;;;4996785;28;20074;-61
2022/04/01 06:20:00;;;;;;;3.80;1.80;;;1.90;99.90;;;;;;4997689;28;20042;-61
2022/04/01 06:22:30;;;;;;;3.28;1.50;;;2.00;99.90;;;;;;5014266;28;20463;-62
2022/04/01 06:25:17;;;;;;;4.28;1.52;;;2.00;99.90;;;;;;5009311;28;20344;-62
2022/04/01 06:27:54;;;;;;;5.07;1.77;;;2.10;99.90;;;;;;5000084;28;20092;-61
2022/04/01 06:30:21;;;;;;;7.18;1.92;;;2.10;99.90;;;;;;5015564;28;20062;-61
2022/04/01 06:32:50;;;;;;;6.28;1.70;;;2.10;99.90;;;;;;5015238;28;20115;-62
2022/04/01 06:35:44;;;;;;;4.93;1.83;;;2.10;99.90;;;;;;5014472;28;20034;-62
2022/04/01 06:38:17;;;;;;;4.70;1.88;;;2.20;99.90;;;;;;5014929;28;20558;-62
2022/04/01 06:40:52;;;;;;;6.30;2.00;;;2.20;99.90;;;;;;5015162;28;20071;-61
2022/04/01 06:43:18;;;;;;;3.15;1.92;;;2.20;99.90;;;;;;5015064;28;20117;-62
2022/04/01 06:45:44;;;;;;;4.80;1.95;;;2.20;99.90;;;;;;5014472;28;20157;-62
2022/04/01 06:48:10;;;;;;;5.05;1.70;;;2.20;99.90;;;;;;5014732;28;20038;-61
2022/04/01 06:50:37;;;;;;;3.08;1.45;;;2.30;99.90;;;;;;4997826;28;20046;-62
2022/04/01 06:53:02;;;;;;;5.13;1.60;;;2.30;99.90;;;;;;4997972;28;20120;-63
2022/04/01 06:55:28;;;;;;;4.30;1.70;;;2.40;99.90;;;;;;5002509;28;20129;-63
2022/04/01 06:57:54;;;;;;;4.82;1.70;;;2.40;99.90;;;;;;5015035;28;20112;-62
2022/04/01 07:00:20;;;;;;;3.92;1.63;;;2.50;99.90;;;;;;5014805;28;20120;-60
2022/04/01 07:02:46;;;;;;;3.95;1.73;;;2.50;99.90;;;;;;5014801;28;20041;-61
2022/04/01 07:05:13;;;;;;;4.03;1.60;;;2.50;99.90;;;;;;5013891;28;20132;-59
2022/04/01 07:07:43;;;;;;;4.10;2.03;;;2.40;99.90;;;;;;5014602;28;20060;-60
2022/04/01 07:10:11;;;;;;;7.07;2.03;;;2.50;99.90;;;;;;5014947;28;20048;-60
2022/04/01 07:12:37;;;;;;;5.25;1.50;;;2.50;99.90;;;;;;5014961;28;20386;-61
2022/04/01 07:15:04;;;;;;;5.97;1.70;;;2.50;99.90;;;;;;5013713;28;20060;-60
2022/04/01 07:17:30;;;;;;;4.53;1.60;;;2.50;99.90;;;;;;5014721;28;20111;-61
2022/04/01 07:19:55;;;;;;;2.50;1.58;;;2.60;99.90;;;;;;5014900;28;20117;-60
2022/04/01 07:22:21;;;;;;;5.20;1.67;;;2.60;99.90;;;;;;5014722;28;20041;-60
2022/04/01 07:24:47;;;;;;;4.97;1.60;;;2.60;99.90;;;;;;5013847;28;20045;-59
2022/04/01 07:27:14;;;;;;;6.15;1.75;;;2.60;99.90;;;;;;5014516;28;20037;-60
2022/04/01 07:29:40;;;;;;;4.65;1.58;;;2.50;99.90;;;;;;5014507;28;20056;-60
2022/04/01 07:34:52;;;;;;;5.10;1.75;;;2.70;99.90;;;;;;4995616;28;20448;-60
2022/04/01 07:37:22;;;;;;;4.93;1.80;;;2.70;99.90;;;;;;5006899;28;20114;-60
2022/04/01 07:39:48;;;;;;;5.20;1.77;;;2.60;99.90;;;;;;4993168;28;20046;-61
2022/04/01 07:42:14;;;;;;;3.97;1.67;;;2.70;99.90;;;;;;4993305;28;20052;-63
2022/04/01 07:44:40;;;;;;;6.82;2.50;;;2.70;99.90;;;;;;4993473;28;20034;-63
2022/04/01 07:47:09;;;;;;;4.35;1.60;;;2.70;99.90;;;;;;5012622;28;20065;-63
2022/04/01 07:49:37;;;;;;;2.33;1.42;;;2.70;99.90;;;;;;5012756;28;20050;-64
2022/04/01 07:52:08;;;;;;;6.57;2.45;;;2.90;99.90;;;;;;4995560;28;20127;-62
2022/04/01 07:54:35;;;;;;;5.18;1.70;;;2.80;99.90;;;;;;5012388;28;20038;-63
2022/04/01 07:57:02;;;;;;;4.55;2.03;;;2.90;99.90;;;;;;4995282;28;20406;-62
2022/04/01 07:59:27;;;;;;;3.78;1.60;;;2.80;99.90;;;;;;4995365;28;20054;-62
2022/04/01 08:01:53;;;;;;;5.22;1.77;;;2.90;99.90;;;;;;5012731;28;20104;-62
2022/04/01 08:04:19;;;;;;;5.45;1.52;;;2.90;99.90;;;;;;5012411;28;20034;-62
2022/04/01 08:06:44;;;;;;;3.50;1.38;;;2.90;99.90;;;;;;5012227;28;20042;-62
2022/04/01 08:09:10;;;;;;;3.30;1.70;;;2.90;99.90;;;;;;5012535;28;20117;-62
2022/04/01 08:11:36;;;;;;;6.28;3.28;;;2.90;99.90;;;;;;4995234;28;20045;-64
2022/04/01 08:14:02;;;;;;;6.13;2.10;;;2.90;99.90;;;;;;5016096;28;20058;-62
2022/04/01 08:16:28;;;;;;;4.68;1.60;;;2.80;99.90;;;;;;5017585;28;20463;-62
2022/04/01 08:18:54;;;;;;;3.72;1.90;;;2.90;99.90;;;;;;5018088;28;20041;-62
2022/04/01 08:21:20;;;;;;;2.75;1.25;;;2.90;99.90;;;;;;5002858;28;20757;-62
2022/04/01 08:23:45;;;;;;;3.20;1.83;;;3.00;99.90;;;;;;4997714;28;20043;-62
2022/04/01 08:26:12;;;;;;;4.30;1.70;;;3.00;99.90;;;;;;5010811;28;20037;-62
2022/04/01 08:28:38;;;;;;;3.05;1.63;;;3.00;99.90;;;;;;5017634;28;20473;-63
2022/04/01 08:31:06;;;;;;;2.72;1.50;;;3.00;99.90;;;;;;5017687;28;20030;-62
2022/04/01 08:33:32;;;;;;;3.45;1.50;;;3.10;99.90;;;;;;5017003;28;20116;-62
2022/04/01 08:35:57;;;;;;;5.10;2.00;;;3.10;99.90;;;;;;5017172;28;20124;-62
2022/04/01 08:38:23;;;;;;;6.60;2.97;;;3.00;99.90;;;;;;5017665;28;20038;-61
2022/04/01 08:40:49;;;;;;;8.23;2.30;;;3.00;99.90;;;;;;5017576;28;20034;-62
2022/04/01 08:43:30;;;;;;;4.20;2.03;;;3.00;99.90;;;;;;5017007;28;20046;-62
2022/04/01 08:45:58;;;;;;;4.43;2.42;;;3.00;99.90;;;;;;5017188;28;20041;-62
2022/04/01 08:48:27;;;;;;;4.93;2.28;;;3.00;99.90;;;;;;5017215;28;20048;-62
2022/04/01 08:50:54;;;;;;;6.15;3.05;;;3.00;99.90;;;;;;5017323;28;20030;-62
2022/04/01 08:53:20;;;;;;;3.95;2.33;;;3.00;99.90;;;;;;5015894;28;20117;-62
2022/04/01 08:55:47;;;;;;;5.80;2.67;;;3.10;99.90;;;;;;5004624;28;20431;-62
2022/04/01 08:58:16;;;;;;;5.10;2.70;;;3.20;99.90;;;;;;5015639;28;20149;-62
2022/04/01 09:00:43;;;;;;;6.75;3.88;;;3.30;99.90;;;;;;5015593;28;20091;-62
2022/04/01 09:03:12;;;;;;;6.20;3.10;;;3.40;99.90;;;;;;5012275;28;20042;-63
2022/04/01 09:05:44;;;;;;;6.57;3.28;;;3.50;99.90;;;;;;5013804;28;20038;-63
2022/04/01 09:08:10;;;;;;;6.32;2.97;;;3.50;99.90;;;;;;5014699;28;20628;-63
2022/04/01 09:11:06;;;;;;;6.90;3.42;;;3.50;99.90;;;;;;5015021;28;20113;-63
2022/04/01 09:13:52;;;;;;;7.13;3.13;;;3.50;99.90;;;;;;4997055;28;20096;-63
2022/04/01 09:16:32;;;;;;;8.52;3.72;;;3.60;99.90;;;;;;5014385;28;20687;-64
2022/04/01 09:19:03;;;;;;;6.30;3.72;;;3.70;99.90;;;;;;5016399;28;20168;-64
2022/04/01 09:21:34;;;;;;;5.75;3.35;;;3.80;99.90;;;;;;5016789;28;20530;-64
2022/04/01 09:24:01;;;;;;;5.88;3.30;;;3.80;99.90;;;;;;5015009;28;20049;-63
2022/04/01 09:26:35;;;;;;;5.47;3.58;;;3.90;99.90;;;;;;5016439;28;20046;-63
2022/04/01 09:29:03;;;;;;;7.20;3.45;;;4.00;99.90;;;;;;5016588;28;20506;-63
2022/04/01 09:31:34;;;;;;;5.40;3.40;;;4.10;99.90;;;;;;5016672;28;20053;-65
2022/04/01 09:34:01;;;;;;;6.70;4.63;;;4.10;99.90;;;;;;5016321;28;20058;-66
2022/04/01 09:36:33;;;;;;;7.55;4.47;;;4.10;99.90;;;;;;5016212;28;20383;-63
2022/04/01 09:38:59;;;;;;;10.73;4.28;;;4.10;99.90;;;;;;5016693;28;20046;-64
2022/04/01 09:41:36;;;;;;;8.00;4.20;;;4.00;99.90;;;;;;4999237;28;20367;-64
2022/04/01 09:44:23;;;;;;;10.52;4.07;;;3.90;99.90;;;;;;5016014;28;20046;-63
2022/04/01 09:46:52;;;;;;;7.57;4.35;;;3.90;99.90;;;;;;5015727;28;20486;-63
2022/04/01 09:49:36;;;;;;;7.10;4.30;;;3.90;99.90;;;;;;4998952;28;20053;-63
2022/04/01 09:52:22;;;;;;;7.03;4.32;;;4.00;99.90;;;;;;4998747;28;20037;-63
2022/04/01 09:54:53;;;;;;;6.68;5.03;;;4.00;99.90;;;;;;5015140;28;20053;-63
2022/04/01 09:57:21;;;;;;;7.70;4.22;;;3.80;99.90;;;;;;4996391;28;20052;-63
2022/04/01 09:59:49;;;;;;;8.80;4.45;;;3.90;99.90;;;;;;4996159;28;20042;-62
2022/04/01 10:02:15;;;;;;;7.15;4.53;;;3.90;99.90;;;;;;4996085;28;20125;-63
2022/04/01 10:04:41;;;;;;;7.43;5.20;;;3.90;99.90;;;;;;4995907;28;20456;-64
2022/04/01 10:07:07;;;;;;;8.68;4.80;;;3.90;99.90;;;;;;5015603;28;20069;-63
2022/04/01 10:09:34;;;;;;;7.20;4.55;;;3.80;99.90;;;;;;5015859;28;20072;-63
2022/04/01 10:12:03;;;;;;;8.10;5.03;;;3.80;99.90;;;;;;5015620;28;20362;-63
2022/04/01 10:14:31;;;;;;;7.38;4.38;;;3.80;99.90;;;;;;4997839;28;20140;-63
2022/04/01 10:17:00;;;;;;;8.40;5.30;;;3.80;99.90;;;;;;5014459;28;20053;-64
2022/04/01 10:19:30;;;;;;;9.48;5.10;;;3.80;99.90;;;;;;5007561;28;20061;-63
2022/04/01 10:21:56;;;;;;;7.22;4.70;;;3.90;99.90;;;;;;5015768;28;20045;-63
2022/04/01 10:24:53;;;;;;;6.60;4.47;;;4.00;99.90;;;;;;5015511;28;20034;-64
2022/04/01 10:27:26;;;;;;;8.40;4.28;;;4.20;99.90;;;;;;4995843;28;20046;-64
2022/04/01 10:29:56;;;;;;;7.47;4.63;;;4.20;99.90;;;;;;4996383;28;20048;-64
2022/04/01 10:32:23;;;;;;;8.98;5.07;;;4.00;99.90;;;;;;4995760;28;20451;-64
2022/04/01 10:34:53;;;;;;;6.85;4.78;;;4.10;99.90;;;;;;4995887;28;20105;-63
2022/04/01 10:37:22;;;;;;;9.18;5.68;;;4.00;99.90;;;;;;4995750;28;20091;-63
2022/04/01 10:39:59;;;;;;;8.20;5.15;;;3.90;99.90;;;;;;4978517;28;20045;-63
2022/04/01 10:42:30;;;;;;;8.85;4.78;;;3.70;99.90;;;;;;4995817;28;20046;-63
2022/04/01 10:45:03;;;;;;;8.85;5.53;;;3.60;99.90;;;;;;4996428;28;20455;-63
2022/04/01 10:53:39;;;;;;;6.78;4.93;;;3.60;99.90;;;;;;5014739;28;20081;-64
2022/04/01 10:56:23;;;;;;;6.75;4.72;;;3.70;99.90;;;;;;5014878;28;20049;-63
2022/04/01 10:59:03;;;;;;;5.95;4.22;;;3.60;99.90;;;;;;5014949;28;20113;-63
2022/04/01 11:01:29;;;;;;;8.07;4.75;;;3.60;99.90;;;;;;4997351;28;20038;-63
2022/04/01 11:04:21;;;;;;;7.07;4.28;;;3.50;99.90;;;;;;5014521;28;20061;-64
2022/04/01 11:06:58;;;;;;;8.88;7.32;;;3.50;99.90;;;;;;5014187;28;20129;-63
2022/04/01 11:09:46;;;;;;;6.75;4.38;;;3.50;99.90;;;;;;5015055;28;20041;-65
2022/04/01 11:12:15;;;;;;;6.68;4.15;;;3.60;99.90;;;;;;5014915;28;20037;-64
2022/04/01 11:17:28;;;;;;;8.98;4.45;;;3.80;99.90;;;;;;4994975;28;20112;-63
2022/04/01 11:20:10;;;;;;;7.70;4.70;;;3.80;99.90;;;;;;4995141;28;20057;-64
2022/04/01 11:22:41;;;;;;;6.93;4.03;;;4.00;99.90;;;;;;4994900;28;20100;-63
2022/04/01 11:25:12;;;;;;;7.32;4.13;;;4.10;99.90;;;;;;4996987;28;20087;-63
2022/04/01 11:27:48;;;;;;;6.00;3.40;;;4.10;99.90;;;;;;5014584;28;20124;-63
2022/04/01 11:30:16;;;;;;;7.13;3.60;;;4.30;99.90;;;;;;5014649;28;20061;-65
2022/04/01 11:32:48;;;;;;;6.10;3.30;;;4.40;99.90;;;;;;5014173;28;20108;-63
2022/04/01 11:35:16;;;;;;;5.90;3.05;;;4.50;99.90;;;;;;4996552;28;20046;-65
2022/04/01 11:37:44;;;;;;;4.18;2.33;;;4.60;99.90;;;;;;4997027;28;20108;-63
2022/04/01 11:40:18;;;;;;;6.32;2.72;;;4.70;99.90;;;;;;5014484;28;20339;-64
2022/04/01 11:43:04;;;;;;;4.47;2.00;;;4.70;99.90;;;;;;5014462;28;20074;-63
2022/04/01 11:45:43;;;;;;;5.32;3.70;;;4.70;99.90;;;;;;4996650;28;20045;-65
2022/04/01 11:48:22;;;;;;;3.85;2.22;;;4.70;99.90;;;;;;4996025;28;20161;-64
2022/04/01 11:50:54;;;;;;;5.18;2.70;;;4.50;99.90;;;;;;5014309;28;20320;-64
2022/04/01 11:53:31;;;;;;;4.63;2.58;;;4.50;99.90;;;;;;5013903;28;20076;-63
2022/04/01 11:56:02;;;;;;;3.67;2.13;;;4.60;99.90;;;;;;5014202;28;20044;-64
2022/04/01 11:58:49;;;;;;;5.88;2.00;;;4.70;99.90;;;;;;5014336;28;20192;-64
2022/04/01 12:01:16;;;;;;;3.88;2.25;;;4.70;99.90;;;;;;5014086;28;20038;-65
2022/04/01 12:03:42;;;;;;;5.07;2.40;;;4.80;99.90;;;;;;5013768;28;20050;-64
2022/04/01 12:08:52;;;;;;;3.27;2.20;;;5.00;99.90;;;;;;4996840;28;20133;-65
2022/04/01 12:11:17;;;;;;;4.13;2.40;;;4.90;99.90;;;;;;4996882;28;20729;-66
2022/04/01 12:13:53;;;;;;;3.85;2.28;;;4.90;99.90;;;;;;5012916;28;20038;-65
2022/04/01 12:16:21;;;;;;;6.28;2.42;;;4.70;99.90;;;;;;5012744;28;20391;-67
2022/04/01 12:18:49;;;;;;;4.63;2.03;;;4.50;99.90;;;;;;5013354;28;20481;-66
2022/04/01 12:21:22;;;;;;;4.57;1.90;;;4.50;99.90;;;;;;5013442;28;20415;-66
2022/04/01 12:23:50;;;;;;;5.57;2.05;;;4.60;99.90;;;;;;4996387;28;20392;-65
2022/04/01 12:26:21;;;;;;;3.75;2.15;;;4.60;99.90;;;;;;5013127;28;20140;-66
2022/04/01 12:28:50;;;;;;;4.20;1.80;;;4.60;99.90;;;;;;4981284;28;20037;-64
2022/04/01 12:31:24;;;;;;;3.30;1.65;;;4.60;99.90;;;;;;5012453;28;20037;-64
2022/04/01 12:33:52;;;;;;;3.17;1.67;;;4.70;99.90;;;;;;5013368;28;20038;-64
2022/04/01 12:36:34;;;;;;;3.20;1.85;;;4.90;99.90;;;;;;4998804;28;20046;-64
2022/04/01 12:39:18;;;;;;;4.95;2.05;;;5.00;99.90;;;;;;4994421;28;20034;-64
2022/04/01 12:41:58;;;;;;;7.57;2.95;;;5.00;99.90;;;;;;4994309;28;20050;-63
2022/04/01 12:44:31;;;;;;;5.78;2.00;;;5.00;99.90;;;;;;4993299;28;20042;-64
2022/04/01 12:47:03;;;;;;;4.18;1.90;;;5.00;99.90;;;;;;5004944;28;20396;-65
2022/04/01 12:49:33;;;;;;;3.22;1.60;;;5.10;99.90;;;;;;5013159;28;20463;-64
2022/04/01 12:52:05;;;;;;;4.55;1.75;;;5.10;99.90;;;;;;5012271;28;20076;-65
2022/04/01 12:54:34;;;;;;;3.35;1.90;;;5.10;99.90;;;;;;5013154;28;20038;-64
2022/04/01 12:57:08;;;;;;;5.72;2.20;;;5.10;99.90;;;;;;4995536;28;20115;-65
2022/04/01 12:59:56;;;;;;;4.22;2.10;;;5.10;99.90;;;;;;4995687;28;20459;-64
2022/04/01 13:02:23;;;;;;;3.80;1.95;;;5.10;99.90;;;;;;4998125;28;20045;-64
2022/04/01 13:04:51;;;;;;;4.70;2.20;;;5.30;99.90;;;;;;4999354;28;20042;-64
2022/04/01 13:07:32;;;;;;;4.35;2.25;;;5.10;99.90;;;;;;5016810;28;20052;-65
2022/04/01 13:10:07;;;;;;;3.20;2.20;;;5.20;99.90;;;;;;4999594;28;20057;-63
2022/04/01 13:12:46;;;;;;;;;;;5.20;99.90;;;;;;5016381;28;20044;-63
2022/04/01 13:15:17;;;;;;;2.92;1.75;;;5.20;99.90;;;;;;5014552;28;20358;-63
2022/04/01 13:17:45;;;;;;;5.07;1.92;;;5.10;99.90;;;;;;5015256;28;20085;-63
2022/04/01 13:20:12;;;;;;;5.10;2.10;;;5.10;99.90;;;;;;5015220;28;20045;-63
2022/04/01 13:22:40;;;;;;;4.78;2.25;;;5.20;99.90;;;;;;5015407;28;20050;-64
2022/04/01 13:25:06;;;;;;;4.00;2.70;;;5.20;99.90;;;;;;5014500;28;20049;-63
2022/04/01 13:27:32;;;;;;;5.15;2.15;;;5.30;99.90;;;;;;5014764;28;20084;-63
2022/04/01 13:29:58;;;;;;;4.53;2.30;;;5.50;99.90;;;;;;5016810;28;20065;-64
2022/04/01 13:32:25;;;;;;;3.20;2.05;;;5.60;99.90;;;;;;5016394;28;20041;-64
2022/04/01 13:34:51;;;;;;;2.83;1.75;;;5.50;99.90;;;;;;5016266;28;20064;-64